Time;durP1;ratioP1;P1;durP2;ratioP2;P2;SDS_P1;SDS_P2;PMS_P1;PMS_P2;Temp;Humidity;BMP_temperature;BMP_pressure;BME280_temperature;BME280_humidity;BME280_pressure;Samples;Min_cycle;Max_cycle;Signal;HPM_P1;HPM_P2
2023/01/19 00:01:55;;;;;;;9.5;8.1;;;;;;;;;;;;;
2023/01/19 00:04:24;;;;;;;10.3;8.6;;;;;;;;;;;;;
2023/01/19 00:06:50;;;;;;;10.3;8.3;;;;;;;;;;;;;
2023/01/19 00:09:15;;;;;;;10.9;8.3;;;;;;;;;;;;;
2023/01/19 00:11:42;;;;;;;11.8;8.8;;;;;;;;;;;;;
2023/01/19 00:14:12;;;;;;;9.4;8.3;;;;;;;;;;;;;
2023/01/19 00:16:46;;;;;;;9.9;8.3;;;;;;;;;;;;;
2023/01/19 00:19:15;;;;;;;9.4;8.1;;;;;;;;;;;;;
2023/01/19 00:21:44;;;;;;;9.8;8.2;;;;;;;;;;;;;
2023/01/19 00:24:10;;;;;;;11.2;8.7;;;;;;;;;;;;;
2023/01/19 00:26:41;;;;;;;11.7;8.3;;;;;;;;;;;;;
2023/01/19 00:29:10;;;;;;;10.2;8.9;;;;;;;;;;;;;
2023/01/19 00:31:36;;;;;;;12.9;9.9;;;;;;;;;;;;;
2023/01/19 00:34:05;;;;;;;11.2;9.6;;;;;;;;;;;;;
2023/01/19 00:36:30;;;;;;;13.1;8.8;;;;;;;;;;;;;
2023/01/19 00:38:56;;;;;;;11.8;8.7;;;;;;;;;;;;;
2023/01/19 00:42:38;;;;;;;11.6;9.1;;;;;;;;;;;;;
2023/01/19 00:43:46;;;;;;;10.7;8;;;;;;;;;;;;;
2023/01/19 00:46:12;;;;;;;9.2;7.6;;;;;;;;;;;;;
2023/01/19 00:48:38;;;;;;;8.9;7.2;;;;;;;;;;;;;
2023/01/19 00:51:03;;;;;;;9.7;7.5;;;;;;;;;;;;;
2023/01/19 00:53:31;;;;;;;9.3;6.5;;;;;;;;;;;;;
2023/01/19 00:55:56;;;;;;;7.8;6.4;;;;;;;;;;;;;
2023/01/19 00:58:22;;;;;;;8.2;6.6;;;;;;;;;;;;;
2023/01/19 01:00:46;;;;;;;8.4;6;;;;;;;;;;;;;
2023/01/19 01:03:12;;;;;;;6.9;5.7;;;;;;;;;;;;;
2023/01/19 01:05:38;;;;;;;8.1;6.2;;;;;;;;;;;;;
2023/01/19 01:08:04;;;;;;;6.9;5.2;;;;;;;;;;;;;
2023/01/19 01:10:30;;;;;;;8.1;5.5;;;;;;;;;;;;;
2023/01/19 01:12:55;;;;;;;8.3;6;;;;;;;;;;;;;
2023/01/19 01:15:20;;;;;;;6.8;5.5;;;;;;;;;;;;;
2023/01/19 01:17:47;;;;;;;5.8;4.5;;;;;;;;;;;;;
2023/01/19 01:20:15;;;;;;;5.6;4.3;;;;;;;;;;;;;
2023/01/19 01:22:37;;;;;;;5.8;4.1;;;;;;;;;;;;;
2023/01/19 01:25:03;;;;;;;4.8;4;;;;;;;;;;;;;
2023/01/19 01:27:28;;;;;;;5.2;4.2;;;;;;;;;;;;;
2023/01/19 01:29:55;;;;;;;6.1;4.2;;;;;;;;;;;;;
2023/01/19 01:32:20;;;;;;;4.1;3.7;;;;;;;;;;;;;
2023/01/19 01:34:45;;;;;;;5;3.5;;;;;;;;;;;;;
2023/01/19 01:37:10;;;;;;;4.1;3.4;;;;;;;;;;;;;
2023/01/19 01:39:38;;;;;;;4.7;3.5;;;;;;;;;;;;;
2023/01/19 01:42:03;;;;;;;5.7;3.7;;;;;;;;;;;;;
2023/01/19 01:44:28;;;;;;;4.4;3.5;;;;;;;;;;;;;
2023/01/19 01:46:53;;;;;;;5.4;3.9;;;;;;;;;;;;;
2023/01/19 01:49:18;;;;;;;5.1;3.8;;;;;;;;;;;;;
2023/01/19 01:51:44;;;;;;;5.8;3.6;;;;;;;;;;;;;
2023/01/19 01:54:09;;;;;;;5.1;3.5;;;;;;;;;;;;;
2023/01/19 01:56:35;;;;;;;5.1;3.8;;;;;;;;;;;;;
2023/01/19 01:59:00;;;;;;;4.6;3.6;;;;;;;;;;;;;
2023/01/19 02:03:52;;;;;;;5.2;3.8;;;;;;;;;;;;;
2023/01/19 02:06:18;;;;;;;6.1;4;;;;;;;;;;;;;
2023/01/19 02:13:34;;;;;;;5.7;4.7;;;;;;;;;;;;;
2023/01/19 02:16:01;;;;;;;5.1;3.9;;;;;;;;;;;;;
2023/01/19 02:18:26;;;;;;;6.4;3.9;;;;;;;;;;;;;
2023/01/19 02:20:52;;;;;;;5;3.8;;;;;;;;;;;;;
2023/01/19 02:23:17;;;;;;;6;4;;;;;;;;;;;;;
2023/01/19 02:25:42;;;;;;;5.3;4.4;;;;;;;;;;;;;
2023/01/19 02:28:08;;;;;;;5.9;4.6;;;;;;;;;;;;;
2023/01/19 02:30:33;;;;;;;5.1;4.6;;;;;;;;;;;;;
2023/01/19 02:32:58;;;;;;;6.1;4.7;;;;;;;;;;;;;
2023/01/19 02:35:23;;;;;;;7;4.9;;;;;;;;;;;;;
2023/01/19 02:37:50;;;;;;;5.3;4.7;;;;;;;;;;;;;
2023/01/19 02:40:15;;;;;;;6.9;4.8;;;;;;;;;;;;;
2023/01/19 02:42:42;;;;;;;5.2;4.6;;;;;;;;;;;;;
2023/01/19 02:45:08;;;;;;;6.8;4.9;;;;;;;;;;;;;
2023/01/19 02:47:34;;;;;;;7.1;4.9;;;;;;;;;;;;;
2023/01/19 02:50:00;;;;;;;5.8;4.6;;;;;;;;;;;;;
2023/01/19 02:52:25;;;;;;;6.7;4.4;;;;;;;;;;;;;
2023/01/19 02:54:50;;;;;;;6.4;4;;;;;;;;;;;;;
2023/01/19 02:57:17;;;;;;;5.3;4.3;;;;;;;;;;;;;
2023/01/19 02:59:43;;;;;;;5.4;4;;;;;;;;;;;;;
2023/01/19 03:02:09;;;;;;;5.3;3.9;;;;;;;;;;;;;
2023/01/19 03:04:35;;;;;;;5.4;4.2;;;;;;;;;;;;;
2023/01/19 03:07:02;;;;;;;5.7;4.4;;;;;;;;;;;;;
2023/01/19 03:09:27;;;;;;;4.6;4;;;;;;;;;;;;;
2023/01/19 03:11:52;;;;;;;5.6;4.3;;;;;;;;;;;;;
2023/01/19 03:14:17;;;;;;;6.1;4.4;;;;;;;;;;;;;
2023/01/19 03:16:44;;;;;;;5;4;;;;;;;;;;;;;
2023/01/19 03:19:09;;;;;;;4.7;4.2;;;;;;;;;;;;;
2023/01/19 03:21:34;;;;;;;4.7;4.2;;;;;;;;;;;;;
2023/01/19 03:24:00;;;;;;;4.7;4.2;;;;;;;;;;;;;
2023/01/19 03:26:25;;;;;;;6.4;4.9;;;;;;;;;;;;;
2023/01/19 03:28:51;;;;;;;5.8;4.9;;;;;;;;;;;;;
2023/01/19 03:31:19;;;;;;;7.1;5.2;;;;;;;;;;;;;
2023/01/19 03:33:43;;;;;;;6.6;5.2;;;;;;;;;;;;;
2023/01/19 03:36:10;;;;;;;6.6;5.3;;;;;;;;;;;;;
2023/01/19 03:38:35;;;;;;;8.5;5.3;;;;;;;;;;;;;
2023/01/19 03:41:01;;;;;;;6.4;5.2;;;;;;;;;;;;;
2023/01/19 03:43:27;;;;;;;7.3;5.7;;;;;;;;;;;;;
2023/01/19 03:45:54;;;;;;;8.4;5.7;;;;;;;;;;;;;
2023/01/19 03:48:19;;;;;;;7.1;5.6;;;;;;;;;;;;;
2023/01/19 03:50:45;;;;;;;7.7;6.3;;;;;;;;;;;;;
2023/01/19 03:53:10;;;;;;;9;6.6;;;;;;;;;;;;;
2023/01/19 03:55:37;;;;;;;7.4;6.2;;;;;;;;;;;;;
2023/01/19 03:58:02;;;;;;;9;6.7;;;;;;;;;;;;;
2023/01/19 04:02:41;;;;;;;8.8;7;;;;;;;-0.85;87.6123;926.1144;;;;
2023/01/19 04:05:19;;;;;;;7.9;6.8;;;;;;;-0.97;88.04199;926.1458;;;;
2023/01/19 04:07:44;;;;;;;9.5;7.1;;;;;;;-0.83;87.77344;926.1286;;;;
2023/01/19 04:10:11;;;;;;;9.6;6.7;;;;;;;-0.96;87.92285;926.1642;;;;
2023/01/19 04:12:36;;;;;;;8.4;6.6;;;;;;;-0.78;87.34961;926.1342;;;;
2023/01/19 04:15:04;;;;;;;9.4;6.9;;;;;;;-0.7;86.92188;926.1431;;;;
2023/01/19 04:17:29;;;;;;;7.6;6.3;;;;;;;-0.59;86.43262;926.1379;;;;
2023/01/19 04:19:59;;;;;;;8.6;6.2;;;;;;;-0.54;86.04102;926.1622;;;;
2023/01/19 04:22:23;;;;;;;7.8;6.1;;;;;;;-0.72;85.83887;926.2269;;;;
2023/01/19 04:24:51;;;;;;;8.3;6;;;;;;;-0.77;86.16211;926.1923;;;;
2023/01/19 04:27:16;;;;;;;9.5;6.9;;;;;;;-0.81;86.38965;926.1886;;;;
2023/01/19 04:29:41;;;;;;;9.7;7;;;;;;;-0.8;86.54492;926.0845;;;;
2023/01/19 04:34:32;;;;;;;8.8;6.6;;;;;;;-0.87;87.09766;926.0662;;;;
2023/01/19 04:37:02;;;;;;;8.8;6.7;;;;;;;-0.76;86.25391;926.1763;;;;
2023/01/19 04:39:28;;;;;;;8.6;6.5;;;;;;;-0.78;85.65918;926.1351;;;;
2023/01/19 04:41:57;;;;;;;8.9;5.9;;;;;;;-0.74;85.2334;926.194;;;;
2023/01/19 04:44:26;;;;;;;7.6;5.7;;;;;;;-0.7;84.75293;926.1797;;;;
2023/01/19 04:46:51;;;;;;;6.3;5.4;;;;;;;-0.65;82.17188;926.2296;;;;
2023/01/19 04:49:19;;;;;;;8.3;5.3;;;;;;;-0.57;81.36328;926.1786;;;;
2023/01/19 04:51:43;;;;;;;7.9;5.7;;;;;;;-0.69;81.48535;926.2098;;;;
2023/01/19 04:54:11;;;;;;;8.9;6.7;;;;;;;-0.6;81.74707;926.2656;;;;
2023/01/19 04:56:36;;;;;;;8.9;6.6;;;;;;;-0.43;81.14648;926.2922;;;;
2023/01/19 04:59:03;;;;;;;8.4;6;;;;;;;-0.5;80.67578;926.3036;;;;
2023/01/19 05:01:29;;;;;;;8.5;6;;;;;;;-0.43;80.94629;926.4253;;;;
2023/01/19 05:03:58;;;;;;;8.4;6.4;;;;;;;-0.39;80.49707;926.4533;;;;
2023/01/19 05:06:23;;;;;;;6.4;4.8;;;;;;;-0.28;79.43945;926.4903;;;;
2023/01/19 05:08:50;;;;;;;8.5;6.8;;;;;;;-0.53;77.20898;926.5142;;;;
2023/01/19 05:11:15;;;;;;;8.1;5.9;;;;;;;-0.46;77.72363;926.4648;;;;
2023/01/19 05:13:44;;;;;;;6.1;4.6;;;;;;;-0.3;76.96484;926.4756;;;;
2023/01/19 05:16:09;;;;;;;6.8;5.5;;;;;;;-0.33;77.01367;926.3683;;;;
2023/01/19 05:18:36;;;;;;;7;5.1;;;;;;;-0.5;76.30371;926.5012;;;;
2023/01/19 05:21:01;;;;;;;6.6;5;;;;;;;-0.43;77.16211;926.5362;;;;
2023/01/19 05:23:31;;;;;;;5.7;4.2;;;;;;;-0.34;77.64453;926.5784;;;;
2023/01/19 05:26:05;;;;;;;5.8;4.8;;;;;;;-0.34;78.03613;926.5237;;;;
2023/01/19 05:28:36;;;;;;;6.2;4.9;;;;;;;-0.44;77.22754;926.5477;;;;
2023/01/19 05:31:01;;;;;;;7.1;5.7;;;;;;;-0.42;77.55371;926.6248;;;;
2023/01/19 05:33:28;;;;;;;7.2;5.7;;;;;;;-0.54;76.5293;926.5898;;;;
2023/01/19 05:35:53;;;;;;;5.3;4.8;;;;;;;-0.43;75.59375;926.6005;;;;
2023/01/19 05:38:23;;;;;;;6.7;5;;;;;;;-0.47;76.93164;926.6631;;;;
2023/01/19 05:40:54;;;;;;;6.3;4.7;;;;;;;-0.38;77.36133;926.6336;;;;
2023/01/19 05:43:19;;;;;;;4.9;4.2;;;;;;;-0.32;76.70313;926.6855;;;;
2023/01/19 05:45:49;;;;;;;6;4.7;;;;;;;-0.32;76.13574;926.6761;;;;
2023/01/19 05:48:14;;;;;;;5.1;4.2;;;;;;;-0.29;76.34082;926.7245;;;;
2023/01/19 05:50:43;;;;;;;6.4;4.5;;;;;;;-0.27;76.14551;926.7363;;;;
2023/01/19 05:53:08;;;;;;;5.4;4.5;;;;;;;-0.31;75.89258;926.7491;;;;
2023/01/19 05:55:36;;;;;;;6.2;4.4;;;;;;;-0.26;76.13574;926.6927;;;;
2023/01/19 05:58:01;;;;;;;7.9;5.4;;;;;;;-0.23;75.62695;926.713;;;;
2023/01/19 06:00:29;;;;;;;10.1;6.7;;;;;;;-0.22;75.37598;926.7425;;;;
2023/01/19 06:02:54;;;;;;;9.6;5.7;;;;;;;-0.2;75.82324;926.7555;;;;
2023/01/19 06:05:21;;;;;;;5.5;4.6;;;;;;;-0.34;74.20508;926.8027;;;;
2023/01/19 06:07:46;;;;;;;5.2;3.5;;;;;;;-0.57;72.35254;926.8211;;;;
2023/01/19 06:10:13;;;;;;;4.7;3.9;;;;;;;-0.55;73.58105;926.8506;;;;
2023/01/19 06:12:38;;;;;;;6.5;4.3;;;;;;;-0.49;74.28027;926.7916;;;;
2023/01/19 06:15:04;;;;;;;6.6;4.5;;;;;;;-0.4;73.69629;926.9363;;;;
2023/01/19 06:18:01;;;;;;;5;4.2;;;;;;;-0.35;73.34863;926.9011;;;;
2023/01/19 06:20:29;;;;;;;7.1;4.5;;;;;;;-0.31;73.64453;926.957;;;;
2023/01/19 06:25:48;;;;;;;7.8;4.9;;;;;;;-0.38;74.11133;927.0518;;;;
2023/01/19 06:28:13;;;;;;;6.1;4.8;;;;;;;-0.35;73.98242;927.135;;;;
2023/01/19 06:30:41;;;;;;;6.7;5.1;;;;;;;-0.34;74.4502;927.1467;;;;
2023/01/19 06:33:06;;;;;;;8.7;6.2;;;;;;;-0.34;74.2832;927.1273;;;;
2023/01/19 06:35:34;;;;;;;6.9;5.8;;;;;;;-0.4;75.57617;927.1501;;;;
2023/01/19 06:37:59;;;;;;;5.7;4.2;;;;;;;-0.43;76.6377;927.1608;;;;
2023/01/19 06:40:29;;;;;;;6.5;4.5;;;;;;;-0.45;76.73633;927.1423;;;;
2023/01/19 06:43:46;;;;;;;5.7;4.3;;;;;;;-0.46;76.62207;927.1678;;;;
2023/01/19 06:49:11;;;;;;;10.3;7.4;;;;;;;-0.65;77.13379;927.1356;;;;
2023/01/19 06:51:36;;;;;;;11.7;7.3;;;;;;;-0.63;77.10352;927.0041;;;;
2023/01/19 06:54:01;;;;;;;16.1;11;;;;;;;-0.73;77.71973;927.1682;;;;
2023/01/19 06:56:27;;;;;;;9.1;6.4;;;;;;;-0.83;78.65723;927.152;;;;
2023/01/19 06:58:54;;;;;;;9.7;6;;;;;;;-0.91;79.46484;927.2932;;;;
2023/01/19 07:01:21;;;;;;;7.5;5.5;;;;;;;-1.04;80.08496;927.3486;;;;
2023/01/19 07:03:46;;;;;;;7.1;5.2;;;;;;;-1.26;80.39746;927.3172;;;;
2023/01/19 07:06:12;;;;;;;8.1;5.5;;;;;;;-1.31;80.82227;927.4327;;;;
2023/01/19 07:09:34;;;;;;;6.9;5.4;;;;;;;-1.24;80.98047;927.4702;;;;
2023/01/19 07:12:01;;;;;;;7.1;5.5;;;;;;;-1.39;82.23926;927.5655;;;;
2023/01/19 07:14:32;;;;;;;7.8;5.4;;;;;;;-1.24;82.17773;927.4966;;;;
2023/01/19 07:16:58;;;;;;;6.9;5.3;;;;;;;-1.09;81.63086;927.5818;;;;
2023/01/19 07:19:27;;;;;;;9.7;6;;;;;;;-1.04;80.62988;927.5759;;;;
2023/01/19 07:21:53;;;;;;;7.1;5.3;;;;;;;-0.99;80.2832;927.5848;;;;
2023/01/19 07:24:21;;;;;;;6.8;4.8;;;;;;;-0.98;80.60645;927.5823;;;;
2023/01/19 07:26:47;;;;;;;6.7;5.2;;;;;;;-0.89;80.37988;927.5726;;;;
2023/01/19 07:29:12;;;;;;;8.7;6;;;;;;;-0.79;80.36523;927.6006;;;;
2023/01/19 07:31:38;;;;;;;9.2;6.2;;;;;;;-0.68;80.10742;927.662;;;;
2023/01/19 07:34:04;;;;;;;7.8;5.3;;;;;;;-0.65;79.72559;927.6865;;;;
2023/01/19 07:36:34;;;;;;;9.5;5.9;;;;;;;-0.58;79.50391;927.7236;;;;
2023/01/19 07:38:59;;;;;;;13.3;8.9;;;;;;;-0.6;79.96777;927.721;;;;
2023/01/19 07:41:26;;;;;;;11.3;8.2;;;;;;;-0.79;80.92285;927.7992;;;;
2023/01/19 07:43:52;;;;;;;11.1;8.7;;;;;;;-1.06;82.22461;927.8148;;;;
2023/01/19 07:46:17;;;;;;;11.4;8.4;;;;;;;-1.02;81.9668;927.8109;;;;
2023/01/19 07:48:43;;;;;;;7.9;6.3;;;;;;;-1.25;82.35449;927.8594;;;;
2023/01/19 07:51:10;;;;;;;11.6;6.2;;;;;;;-1.1;82.42871;927.9277;;;;
2023/01/19 07:53:33;;;;;;;8.2;6.6;;;;;;;-1.28;82.4707;927.8889;;;;
2023/01/19 07:55:59;;;;;;;10.6;7.1;;;;;;;-1.24;82.81152;927.916;;;;
2023/01/19 07:58:25;;;;;;;9.2;6.6;;;;;;;-1.44;83.42676;927.8194;;;;
2023/01/19 08:00:53;;;;;;;7.4;6.2;;;;;;;-1.48;84.12891;927.9194;;;;
2023/01/19 08:03:19;;;;;;;7.4;5.6;;;;;;;-1.44;83.80469;928.0093;;;;
2023/01/19 08:05:46;;;;;;;9.1;6.8;;;;;;;-1.35;83.9668;927.959;;;;
2023/01/19 08:08:12;;;;;;;9.7;7.2;;;;;;;-1.4;83.95801;927.9501;;;;
2023/01/19 08:11:16;;;;;;;10.9;8;;;;;;;-1.22;83.83887;928.0004;;;;
2023/01/19 08:13:45;;;;;;;9.9;8.2;;;;;;;-1.03;83.39648;927.9348;;;;
2023/01/19 08:16:10;;;;;;;10;7.4;;;;;;;;;;;;;
2023/01/19 08:18:37;;;;;;;8.9;7.3;;;;;;;;;;;;;
2023/01/19 08:21:02;;;;;;;9.7;7.7;;;;;;;;;;;;;
2023/01/19 08:23:28;;;;;;;11;8;;;;;;;;;;;;;
2023/01/19 08:25:53;;;;;;;9.8;7.2;;;;;;;;;;;;;
2023/01/19 08:28:20;;;;;;;9.7;6.8;;;;;;;;;;;;;
2023/01/19 08:30:52;;;;;;;8.9;7.1;;;;;;;;;;;;;
2023/01/19 08:33:10;;;;;;;8.4;6.7;;;;;;;;;;;;;
2023/01/19 08:35:38;;;;;;;9;6.5;;;;;;;;;;;;;
2023/01/19 08:38:03;;;;;;;7.6;5.8;;;;;;;;;;;;;
2023/01/19 08:40:28;;;;;;;8.2;5.3;;;;;;;;;;;;;
2023/01/19 08:42:54;;;;;;;7.7;5.6;;;;;;;;;;;;;
2023/01/19 08:45:19;;;;;;;6.1;5.2;;;;;;;;;;;;;
2023/01/19 08:47:44;;;;;;;6.9;5.3;;;;;;;;;;;;;
2023/01/19 08:50:09;;;;;;;7.4;5.9;;;;;;;;;;;;;
2023/01/19 08:52:36;;;;;;;8.3;6.4;;;;;;;;;;;;;
2023/01/19 08:55:01;;;;;;;9;6.3;;;;;;;;;;;;;
2023/01/19 08:57:26;;;;;;;8.4;5.9;;;;;;;;;;;;;
2023/01/19 08:59:51;;;;;;;7.6;6.2;;;;;;;;;;;;;
2023/01/19 09:02:18;;;;;;;8.9;6.4;;;;;;;;;;;;;
2023/01/19 09:04:43;;;;;;;9.1;6.8;;;;;;;;;;;;;
2023/01/19 09:07:09;;;;;;;9.8;6.5;;;;;;;;;;;;;
2023/01/19 09:09:36;;;;;;;8.5;6.4;;;;;;;;;;;;;
2023/01/19 09:12:00;;;;;;;11.3;6.6;;;;;;;;;;;;;
2023/01/19 09:14:25;;;;;;;8.8;6.7;;;;;;;;;;;;;
2023/01/19 09:16:50;;;;;;;8.1;5.8;;;;;;;;;;;;;
2023/01/19 09:19:17;;;;;;;7.9;6.4;;;;;;;;;;;;;
2023/01/19 09:21:42;;;;;;;8.3;6.1;;;;;;;;;;;;;
2023/01/19 09:24:08;;;;;;;8.8;6.5;;;;;;;;;;;;;
2023/01/19 09:26:33;;;;;;;7.7;5.8;;;;;;;;;;;;;
2023/01/19 09:28:58;;;;;;;7.8;5.2;;;;;;;;;;;;;
2023/01/19 09:31:23;;;;;;;6.7;4.6;;;;;;;;;;;;;
2023/01/19 09:33:49;;;;;;;6.9;5.1;;;;;;;;;;;;;
2023/01/19 09:36:14;;;;;;;6.8;4.8;;;;;;;;;;;;;
2023/01/19 09:38:47;;;;;;;7.3;4.8;;;;;;;;;;;;;
2023/01/19 09:41:13;;;;;;;5.6;4.1;;;;;;;;;;;;;
2023/01/19 09:43:38;;;;;;;7.8;5.3;;;;;;;;;;;;;
2023/01/19 09:46:03;;;;;;;8.3;5.3;;;;;;;;;;;;;
2023/01/19 09:48:28;;;;;;;6;5;;;;;;;;;;;;;
2023/01/19 09:50:53;;;;;;;6;4.5;;;;;;;;;;;;;
2023/01/19 09:53:19;;;;;;;7;4.2;;;;;;;;;;;;;
2023/01/19 09:55:44;;;;;;;5.7;4;;;;;;;;;;;;;
2023/01/19 09:58:10;;;;;;;5.2;4;;;;;;;;;;;;;
2023/01/19 10:00:36;;;;;;;6;4.4;;;;;;;;;;;;;
2023/01/19 10:03:01;;;;;;;5.2;4.1;;;;;;;;;;;;;
2023/01/19 10:05:26;;;;;;;5.3;4.2;;;;;;;;;;;;;
2023/01/19 10:07:53;;;;;;;5.9;3.8;;;;;;;;;;;;;
2023/01/19 10:10:17;;;;;;;6.3;4.5;;;;;;;;;;;;;
2023/01/19 10:12:42;;;;;;;4.7;4.1;;;;;;;;;;;;;
2023/01/19 10:15:07;;;;;;;5.6;4.4;;;;;;;;;;;;;
2023/01/19 10:17:35;;;;;;;5.2;4.4;;;;;;;;;;;;;
2023/01/19 10:20:00;;;;;;;5.5;4.4;;;;;;;;;;;;;
2023/01/19 10:22:25;;;;;;;6.2;4.1;;;;;;;;;;;;;
2023/01/19 10:24:51;;;;;;;6.1;4.6;;;;;;;;;;;;;
2023/01/19 10:27:16;;;;;;;6.8;4.6;;;;;;;;;;;;;
2023/01/19 10:29:40;;;;;;;6.8;5;;;;;;;;;;;;;
2023/01/19 10:32:06;;;;;;;6.5;4.6;;;;;;;;;;;;;
2023/01/19 10:34:31;;;;;;;7;5.9;;;;;;;;;;;;;
2023/01/19 10:36:58;;;;;;;8.4;6.4;;;;;;;;;;;;;
2023/01/19 10:39:23;;;;;;;9.4;6.5;;;;;;;;;;;;;
2023/01/19 10:41:50;;;;;;;9.1;6.3;;;;;;;;;;;;;
2023/01/19 10:44:15;;;;;;;9;5.7;;;;;;;;;;;;;
2023/01/19 10:46:41;;;;;;;8.3;5.8;;;;;;;;;;;;;
2023/01/19 10:49:06;;;;;;;7.7;6.1;;;;;;;;;;;;;
2023/01/19 10:51:31;;;;;;;8.9;5.7;;;;;;;;;;;;;
2023/01/19 10:53:56;;;;;;;7.5;5.5;;;;;;;;;;;;;
2023/01/19 10:56:21;;;;;;;8.3;5.5;;;;;;;;;;;;;
2023/01/19 10:58:47;;;;;;;8.3;5.2;;;;;;;;;;;;;
2023/01/19 11:01:12;;;;;;;7.3;4.9;;;;;;;;;;;;;
2023/01/19 11:03:37;;;;;;;6.8;4.6;;;;;;;;;;;;;
2023/01/19 11:06:02;;;;;;;5.9;4.2;;;;;;;;;;;;;
2023/01/19 11:08:27;;;;;;;7.1;5.1;;;;;;;;;;;;;
2023/01/19 11:10:52;;;;;;;7.6;5.5;;;;;;;;;;;;;
2023/01/19 11:13:19;;;;;;;8.7;6.2;;;;;;;;;;;;;
2023/01/19 11:15:44;;;;;;;9.2;6.5;;;;;;;;;;;;;
2023/01/19 11:18:10;;;;;;;9.4;6.9;;;;;;;;;;;;;
2023/01/19 11:20:37;;;;;;;10.7;6.6;;;;;;;;;;;;;
2023/01/19 11:23:03;;;;;;;9.5;7.1;;;;;;;;;;;;;
2023/01/19 11:25:29;;;;;;;7.7;6;;;;;;;;;;;;;
2023/01/19 11:27:54;;;;;;;8.7;5.8;;;;;;;;;;;;;
2023/01/19 11:30:19;;;;;;;7.8;5.3;;;;;;;;;;;;;
2023/01/19 11:32:48;;;;;;;6.5;4.6;;;;;;;;;;;;;
2023/01/19 11:35:11;;;;;;;7.8;5.9;;;;;;;;;;;;;
2023/01/19 11:37:36;;;;;;;8;5.3;;;;;;;;;;;;;
2023/01/19 11:40:03;;;;;;;9;6.2;;;;;;;;;;;;;
2023/01/19 11:42:27;;;;;;;9.1;6;;;;;;;;;;;;;
2023/01/19 11:44:54;;;;;;;6.8;4.8;;;;;;;;;;;;;
2023/01/19 11:47:20;;;;;;;6.5;5.2;;;;;;;;;;;;;
2023/01/19 11:49:45;;;;;;;8.3;5.2;;;;;;;;;;;;;
2023/01/19 11:52:10;;;;;;;7.9;4.9;;;;;;;;;;;;;
2023/01/19 11:54:36;;;;;;;8.9;5.8;;;;;;;;;;;;;
2023/01/19 11:57:01;;;;;;;7.5;5.4;;;;;;;;;;;;;
2023/01/19 11:59:26;;;;;;;8;5.6;;;;;;;;;;;;;
2023/01/19 12:01:53;;;;;;;8.2;5.6;;;;;;;;;;;;;
2023/01/19 12:04:17;;;;;;;7.9;5.8;;;;;;;;;;;;;
2023/01/19 12:06:43;;;;;;;7.8;5.4;;;;;;;;;;;;;
2023/01/19 12:09:09;;;;;;;7;5.3;;;;;;;;;;;;;
2023/01/19 12:11:34;;;;;;;8.2;6;;;;;;;;;;;;;
2023/01/19 12:14:01;;;;;;;6.7;5.6;;;;;;;;;;;;;
2023/01/19 12:16:26;;;;;;;7.5;5.5;;;;;;;;;;;;;
2023/01/19 12:18:53;;;;;;;7.4;5.3;;;;;;;;;;;;;
2023/01/19 12:21:18;;;;;;;7;5.4;;;;;;;;;;;;;
2023/01/19 12:23:46;;;;;;;7.9;5.1;;;;;;;;;;;;;
2023/01/19 12:26:12;;;;;;;7;5.8;;;;;;;;;;;;;
2023/01/19 12:28:37;;;;;;;6.6;5;;;;;;;;;;;;;
2023/01/19 12:31:02;;;;;;;6.4;4.9;;;;;;;;;;;;;
2023/01/19 12:33:29;;;;;;;5.8;5;;;;;;;;;;;;;
2023/01/19 12:35:54;;;;;;;8.6;5.9;;;;;;;;;;;;;
2023/01/19 12:38:19;;;;;;;7.7;5.9;;;;;;;;;;;;;
2023/01/19 12:40:46;;;;;;;6.5;5.2;;;;;;;;;;;;;
2023/01/19 12:43:11;;;;;;;7.4;5.6;;;;;;;;;;;;;
2023/01/19 12:45:38;;;;;;;8.4;5.6;;;;;;;;;;;;;
2023/01/19 12:48:02;;;;;;;8.5;6;;;;;;;;;;;;;
2023/01/19 12:50:30;;;;;;;8.6;6.1;;;;;;;;;;;;;
2023/01/19 12:52:56;;;;;;;8.7;5.8;;;;;;;;;;;;;
2023/01/19 12:55:20;;;;;;;8.8;6.4;;;;;;;;;;;;;
2023/01/19 12:57:46;;;;;;;7.8;6.1;;;;;;;;;;;;;
2023/01/19 13:00:15;;;;;;;6.7;5.6;;;;;;;;;;;;;
2023/01/19 13:02:39;;;;;;;8;6.1;;;;;;;;;;;;;
2023/01/19 13:05:04;;;;;;;8.9;6.1;;;;;;;;;;;;;
2023/01/19 13:07:29;;;;;;;7.3;5.8;;;;;;;;;;;;;
2023/01/19 13:09:55;;;;;;;6.8;5.2;;;;;;;;;;;;;
2023/01/19 13:12:19;;;;;;;8.1;6.4;;;;;;;;;;;;;
2023/01/19 13:14:44;;;;;;;8.3;5.9;;;;;;;;;;;;;
2023/01/19 13:17:09;;;;;;;9.3;6.2;;;;;;;;;;;;;
2023/01/19 13:19:35;;;;;;;7.8;5.5;;;;;;;;;;;;;
2023/01/19 13:22:00;;;;;;;8.8;6.2;;;;;;;;;;;;;
2023/01/19 13:24:25;;;;;;;7.5;5.7;;;;;;;;;;;;;
2023/01/19 13:26:50;;;;;;;6.4;5.2;;;;;;;;;;;;;
2023/01/19 13:29:16;;;;;;;7.1;5.6;;;;;;;;;;;;;
2023/01/19 13:31:41;;;;;;;8.2;5.5;;;;;;;;;;;;;
2023/01/19 13:34:08;;;;;;;7.5;4.9;;;;;;;;;;;;;
2023/01/19 13:36:33;;;;;;;10;5.1;;;;;;;;;;;;;
2023/01/19 13:39:00;;;;;;;6.3;4.9;;;;;;;;;;;;;
2023/01/19 13:41:25;;;;;;;8.4;5.7;;;;;;;;;;;;;
2023/01/19 13:43:52;;;;;;;8.9;6.1;;;;;;;;;;;;;
2023/01/19 13:46:18;;;;;;;8.3;5.6;;;;;;;;;;;;;
2023/01/19 13:48:43;;;;;;;8.6;6.7;;;;;;;;;;;;;
2023/01/19 13:51:08;;;;;;;8.5;6.7;;;;;;;;;;;;;
2023/01/19 13:53:34;;;;;;;11.2;7.1;;;;;;;;;;;;;
2023/01/19 13:55:58;;;;;;;9.7;5.8;;;;;;;;;;;;;
2023/01/19 13:58:25;;;;;;;8.4;6;;;;;;;;;;;;;
2023/01/19 14:00:50;;;;;;;8.4;6;;;;;;;;;;;;;
2023/01/19 14:03:16;;;;;;;7.7;6.2;;;;;;;;;;;;;
2023/01/19 14:05:41;;;;;;;9.8;7;;;;;;;;;;;;;
2023/01/19 14:08:06;;;;;;;9.8;7.5;;;;;;;;;;;;;
2023/01/19 14:10:33;;;;;;;8.9;6.6;;;;;;;;;;;;;
2023/01/19 14:12:59;;;;;;;8.7;6;;;;;;;;;;;;;
2023/01/19 14:15:24;;;;;;;10.4;6.6;;;;;;;;;;;;;
2023/01/19 14:17:49;;;;;;;11.2;6.6;;;;;;;;;;;;;
2023/01/19 14:20:14;;;;;;;8.9;6.7;;;;;;;;;;;;;
2023/01/19 14:22:39;;;;;;;8.3;6;;;;;;;;;;;;;
2023/01/19 14:25:06;;;;;;;9.9;6.6;;;;;;;;;;;;;
2023/01/19 14:27:31;;;;;;;9.6;6.5;;;;;;;;;;;;;
2023/01/19 14:29:57;;;;;;;9.2;6.2;;;;;;;;;;;;;
2023/01/19 14:32:22;;;;;;;8.6;6.4;;;;;;;;;;;;;
2023/01/19 14:34:47;;;;;;;8.8;6.4;;;;;;;;;;;;;
2023/01/19 14:37:12;;;;;;;8.7;6.3;;;;;;;;;;;;;
2023/01/19 14:39:39;;;;;;;6.5;5.8;;;;;;;;;;;;;
2023/01/19 14:42:05;;;;;;;8.1;5.7;;;;;;;;;;;;;
2023/01/19 14:44:31;;;;;;;8;6.1;;;;;;;;;;;;;
2023/01/19 14:46:58;;;;;;;8.5;6.2;;;;;;;;;;;;;
2023/01/19 14:49:23;;;;;;;8.4;6.2;;;;;;;;;;;;;
2023/01/19 14:51:48;;;;;;;8.5;6.2;;;;;;;;;;;;;
2023/01/19 14:54:14;;;;;;;7.3;5.4;;;;;;;;;;;;;
2023/01/19 14:56:39;;;;;;;8;5.6;;;;;;;;;;;;;
2023/01/19 14:59:06;;;;;;;6.2;4.6;;;;;;;;;;;;;
2023/01/19 15:01:32;;;;;;;6.2;4.2;;;;;;;;;;;;;
2023/01/19 15:03:57;;;;;;;5.1;3.6;;;;;;;;;;;;;
2023/01/19 15:06:22;;;;;;;4.2;3.8;;;;;;;;;;;;;
2023/01/19 15:08:49;;;;;;;4.4;3.1;;;;;;;;;;;;;
2023/01/19 15:11:14;;;;;;;4.1;3.2;;;;;;;;;;;;;
2023/01/19 15:13:40;;;;;;;4.5;3.6;;;;;;;;;;;;;
2023/01/19 15:16:07;;;;;;;4.7;3.6;;;;;;;;;;;;;
2023/01/19 15:18:34;;;;;;;4.6;3.6;;;;;;;;;;;;;
2023/01/19 15:21:01;;;;;;;4.5;3.4;;;;;;;;;;;;;
2023/01/19 15:23:26;;;;;;;4.7;3.5;;;;;;;;;;;;;
2023/01/19 15:25:51;;;;;;;4.2;3.6;;;;;;;;;;;;;
2023/01/19 15:28:18;;;;;;;5.3;4.1;;;;;;;;;;;;;
2023/01/19 15:30:43;;;;;;;5.7;4.6;;;;;;;;;;;;;
2023/01/19 15:33:08;;;;;;;6.2;4.5;;;;;;;;;;;;;
2023/01/19 15:35:34;;;;;;;8.9;6;;;;;;;;;;;;;
2023/01/19 15:37:59;;;;;;;12.1;8.9;;;;;;;;;;;;;
2023/01/19 15:40:26;;;;;;;8.4;5.5;;;;;;;;;;;;;
2023/01/19 15:42:51;;;;;;;10.6;7.9;;;;;;;;;;;;;
2023/01/19 15:45:18;;;;;;;9;6.3;;;;;;;;;;;;;
2023/01/19 15:47:43;;;;;;;11.2;8.1;;;;;;;;;;;;;
2023/01/19 15:50:11;;;;;;;9.9;7.4;;;;;;;;;;;;;
2023/01/19 15:52:36;;;;;;;5.9;4.4;;;;;;;;;;;;;
2023/01/19 15:55:01;;;;;;;8.7;5.8;;;;;;;;;;;;;
2023/01/19 15:57:26;;;;;;;7.2;5.4;;;;;;;;;;;;;
2023/01/19 15:59:52;;;;;;;8.6;6.6;;;;;;;;;;;;;
2023/01/19 16:02:17;;;;;;;11.6;8.8;;;;;;;;;;;;;
2023/01/19 16:04:43;;;;;;;12.8;9.1;;;;;;;;;;;;;
2023/01/19 16:07:08;;;;;;;8.3;6.4;;;;;;;;;;;;;
2023/01/19 16:09:33;;;;;;;9;6.4;;;;;;;;;;;;;
2023/01/19 16:11:58;;;;;;;10.9;8.6;;;;;;;;;;;;;
2023/01/19 16:14:23;;;;;;;15.2;10.6;;;;;;;;;;;;;
2023/01/19 16:16:49;;;;;;;17.9;13.4;;;;;;;;;;;;;
2023/01/19 16:19:15;;;;;;;15.3;11.8;;;;;;;;;;;;;
2023/01/19 16:21:41;;;;;;;10.9;8.6;;;;;;;;;;;;;
2023/01/19 16:24:05;;;;;;;11.5;8.2;;;;;;;;;;;;;
2023/01/19 16:26:31;;;;;;;8.9;6.4;;;;;;;;;;;;;
2023/01/19 16:29:00;;;;;;;6.6;5.3;;;;;;;;;;;;;
2023/01/19 16:31:25;;;;;;;6.7;5.4;;;;;;;;;;;;;
2023/01/19 16:33:51;;;;;;;7.5;6.1;;;;;;;;;;;;;
2023/01/19 16:36:18;;;;;;;8.8;6;;;;;;;;;;;;;
2023/01/19 16:38:43;;;;;;;20.8;12.9;;;;;;;;;;;;;
2023/01/19 16:41:10;;;;;;;12.5;8.9;;;;;;;;;;;;;
2023/01/19 16:43:36;;;;;;;19.4;11.3;;;;;;;;;;;;;
2023/01/19 16:46:03;;;;;;;14.2;8;;;;;;;;;;;;;
2023/01/19 16:48:27;;;;;;;12.2;8.8;;;;;;;;;;;;;
2023/01/19 16:50:52;;;;;;;14;9.4;;;;;;;;;;;;;
2023/01/19 16:53:20;;;;;;;11.1;8.5;;;;;;;;;;;;;
2023/01/19 16:55:46;;;;;;;12.3;8.2;;;;;;;;;;;;;
2023/01/19 16:58:11;;;;;;;11.2;7.8;;;;;;;;;;;;;
2023/01/19 17:00:36;;;;;;;10.8;7.9;;;;;;;;;;;;;
2023/01/19 17:03:05;;;;;;;6.1;4.4;;;;;;;;;;;;;
2023/01/19 17:05:36;;;;;;;9.6;6.1;;;;;;;;;;;;;
2023/01/19 17:08:06;;;;;;;8.3;5.4;;;;;;;;;;;;;
2023/01/19 17:10:31;;;;;;;9.5;6.5;;;;;;;;;;;;;
2023/01/19 17:12:58;;;;;;;8.2;6.2;;;;;;;;;;;;;
2023/01/19 17:15:21;;;;;;;13.1;10.3;;;;;;;;;;;;;
2023/01/19 17:17:47;;;;;;;9.6;7.3;;;;;;;;;;;;;
2023/01/19 17:20:31;;;;;;;16.7;9.7;;;;;;;;;;;;;
2023/01/19 17:22:39;;;;;;;17.3;9.9;;;;;;;;;;;;;
2023/01/19 17:25:04;;;;;;;15.3;9.3;;;;;;;;;;;;;
2023/01/19 17:27:31;;;;;;;14.9;8.2;;;;;;;;;;;;;
2023/01/19 17:29:56;;;;;;;12.1;7.4;;;;;;;;;;;;;
2023/01/19 17:32:25;;;;;;;10.5;6.8;;;;;;;;;;;;;
2023/01/19 17:34:50;;;;;;;10.5;6.6;;;;;;;;;;;;;
2023/01/19 17:37:15;;;;;;;13.1;7.5;;;;;;;;;;;;;
2023/01/19 17:39:43;;;;;;;13.9;8.7;;;;;;;;;;;;;
2023/01/19 17:42:09;;;;;;;16.1;10.5;;;;;;;;;;;;;
2023/01/19 17:44:34;;;;;;;13.1;9.7;;;;;;;;;;;;;
2023/01/19 17:46:59;;;;;;;13.9;8.8;;;;;;;;;;;;;
2023/01/19 17:49:25;;;;;;;11.9;9;;;;;;;;;;;;;
2023/01/19 17:51:53;;;;;;;13.9;9.4;;;;;;;;;;;;;
2023/01/19 17:54:15;;;;;;;17.5;11;;;;;;;;;;;;;
2023/01/19 17:56:41;;;;;;;17.6;11.2;;;;;;;;;;;;;
2023/01/19 17:59:07;;;;;;;19.5;11.4;;;;;;;;;;;;;
2023/01/19 18:01:35;;;;;;;14.4;10.1;;;;;;;;;;;;;
2023/01/19 18:03:59;;;;;;;15.4;9.7;;;;;;;;;;;;;
2023/01/19 18:06:25;;;;;;;14.8;9.1;;;;;;;;;;;;;
2023/01/19 18:09:11;;;;;;;14.7;9.8;;;;;;;;;;;;;
2023/01/19 18:11:40;;;;;;;14.5;10;;;;;;;;;;;;;
2023/01/19 18:14:05;;;;;;;13.6;9.9;;;;;;;;;;;;;
2023/01/19 18:16:31;;;;;;;14.9;10.1;;;;;;;;;;;;;
2023/01/19 18:18:56;;;;;;;16.2;10.7;;;;;;;;;;;;;
2023/01/19 18:21:23;;;;;;;17.4;11.7;;;;;;;;;;;;;
2023/01/19 18:23:48;;;;;;;17.6;10.8;;;;;;;;;;;;;
2023/01/19 18:26:17;;;;;;;16.2;11.1;;;;;;;;;;;;;
2023/01/19 18:28:42;;;;;;;14.5;11;;;;;;;;;;;;;
2023/01/19 18:31:09;;;;;;;18.3;11.3;;;;;;;;;;;;;
2023/01/19 18:33:34;;;;;;;20.1;12.8;;;;;;;;;;;;;
2023/01/19 18:36:00;;;;;;;17.9;12.8;;;;;;;;;;;;;
2023/01/19 18:38:25;;;;;;;26.3;22.2;;;;;;;;;;;;;
2023/01/19 18:40:51;;;;;;;68.3;40.7;;;;;;;;;;;;;
2023/01/19 18:43:17;;;;;;;29.1;19.9;;;;;;;;;;;;;
2023/01/19 18:45:42;;;;;;;20.8;13.7;;;;;;;;;;;;;
2023/01/19 18:48:07;;;;;;;69.5;61.9;;;;;;;;;;;;;
2023/01/19 18:50:32;;;;;;;31;26.6;;;;;;;;;;;;;
2023/01/19 18:52:58;;;;;;;23.7;15.7;;;;;;;;;;;;;
2023/01/19 18:55:24;;;;;;;23.5;14.3;;;;;;;;;;;;;
2023/01/19 18:57:49;;;;;;;18.8;13.6;;;;;;;;;;;;;
2023/01/19 19:00:14;;;;;;;21.4;13.3;;;;;;;;;;;;;
2023/01/19 19:02:40;;;;;;;15.9;10.8;;;;;;;;;;;;;
2023/01/19 19:05:10;;;;;;;19.4;13.5;;;;;;;;;;;;;
2023/01/19 19:07:36;;;;;;;24.4;15.9;;;;;;;;;;;;;